Time;durP1;ratioP1;P1;durP2;ratioP2;P2;SDS_P1;SDS_P2;PMS_P1;PMS_P2;Temp;Humidity;BMP_temperature;BMP_pressure;BME280_temperature;BME280_humidity;BME280_pressure;Samples;Min_cycle;Max_cycle;Signal;HPM_P1;HPM_P2
2023/04/27 00:02:22;;;;;;;;;;;;;;;16.29;56.53;100200.03;5017707;28;1906;-45
2023/04/27 00:04:47;;;;;;;;;;;;;;;17.61;54.26;100192.69;5018664;28;1099;-41
2023/04/27 00:07:12;;;;;;;;;;;;;;;16.72;55.93;100192.00;5018503;28;1051;-45
2023/04/27 00:09:38;;;;;;;;;;;;;;;16.31;56.58;100191.50;5027752;28;1020;-39
2023/04/27 00:12:04;;;;;;;;;;;;;;;16.46;56.77;100190.56;5019059;28;1114;-41
2023/04/27 00:14:29;;;;;;;;;;;;;;;17.66;53.80;100186.31;5018748;28;1143;-38
2023/04/27 00:16:55;;;;;;;;;;;;;;;16.77;55.72;100193.84;5018288;28;1080;-45
2023/04/27 00:19:21;;;;;;;;;;;;;;;16.41;56.29;100180.44;5018276;28;939;-45
2023/04/27 00:21:47;;;;;;;;;;;;;;;16.19;56.45;100186.41;5019469;28;1167;-40
2023/04/27 00:24:12;;;;;;;;;;;;;;;16.41;56.67;100195.00;5018832;28;1984;-42
2023/04/27 00:26:38;;;;;;;;;;;;;;;17.77;53.61;100182.31;5018099;28;996;-43
2023/04/27 00:29:04;;;;;;;;;;;;;;;16.84;55.57;100182.53;5013956;28;1649;-40
2023/04/27 00:31:29;;;;;;;;;;;;;;;16.42;56.23;100180.19;5012583;28;1576;-42
2023/04/27 00:33:55;;;;;;;;;;;;;;;16.25;56.19;100183.31;5020045;28;1132;-41
2023/04/27 00:36:20;;;;;;;;;;;;;;;16.47;56.38;100184.00;5019782;28;1121;-43
2023/04/27 00:38:46;;;;;;;;;;;;;;;17.27;54.43;100174.41;5017998;28;995;-43
2023/04/27 00:41:12;;;;;;;;;;;;;;;16.52;56.07;100182.03;5016977;28;1174;-41
2023/04/27 00:43:42;;;;;;;;;;;;;;;16.25;56.35;100177.00;5018109;28;1906;-41
2023/04/27 00:46:08;;;;;;;;;;;;;;;16.19;56.71;100178.16;5028561;28;1163;-41
2023/04/27 00:48:33;;;;;;;;;;;;;;;17.68;53.96;100184.09;5024613;28;1051;-42
2023/04/27 00:50:59;;;;;;;;;;;;;;;16.94;55.24;100187.94;5017699;28;1222;-44
2023/04/27 00:53:26;;;;;;;;;;;;;;;16.48;55.77;100180.13;5018004;28;1072;-42
2023/04/27 00:55:51;;;;;;;;;;;;;;;16.26;56.06;100184.13;5017466;28;1079;-41
2023/04/27 00:58:17;;;;;;;;;;;;;;;16.11;56.00;100195.22;5017674;28;863;-43
2023/04/27 01:00:42;;;;;;;;;;;;;;;17.28;54.60;100189.81;5017545;28;1087;-44
2023/04/27 01:03:08;;;;;;;;;;;;;;;17.17;54.53;100185.53;5016212;28;1980;-43
2023/04/27 01:05:35;;;;;;;;;;;;;;;16.49;55.94;100192.75;5017947;28;1183;-43
2023/04/27 01:08:02;;;;;;;;;;;;;;;16.24;56.18;100192.66;5017926;28;1198;-41
2023/04/27 01:10:27;;;;;;;;;;;;;;;16.12;56.20;100188.63;5023984;28;1012;-46
2023/04/27 01:12:53;;;;;;;;;;;;;;;17.12;54.98;100193.81;5016142;28;1187;-43
2023/04/27 01:15:18;;;;;;;;;;;;;;;17.03;54.79;100199.97;5016127;28;1200;-41
2023/04/27 01:17:44;;;;;;;;;;;;;;;16.45;55.93;100197.16;5015867;28;1123;-40
2023/04/27 01:20:10;;;;;;;;;;;;;;;16.22;56.00;100205.03;5017166;28;1083;-40
2023/04/27 01:22:35;;;;;;;;;;;;;;;16.27;56.65;100210.47;5017819;28;1898;-41
2023/04/27 01:25:01;;;;;;;;;;;;;;;17.57;53.57;100195.22;5017687;28;1139;-43
2023/04/27 01:27:29;;;;;;;;;;;;;;;16.68;55.60;100204.66;5016167;28;1159;-40
2023/04/27 01:29:55;;;;;;;;;;;;;;;16.30;55.91;100211.81;5017235;28;1124;-43
2023/04/27 01:32:22;;;;;;;;;;;;;;;16.73;55.97;100209.28;5016907;28;1142;-41
2023/04/27 01:34:51;;;;;;;;;;;;;;;17.54;53.38;100193.03;5024806;28;1167;-42
2023/04/27 01:37:16;;;;;;;;;;;;;;;16.65;55.62;100201.66;5015955;28;1399;-42
2023/04/27 01:39:42;;;;;;;;;;;;;;;16.41;55.65;100196.91;5016876;28;1023;-42
2023/04/27 01:42:07;;;;;;;;;;;;;;;16.18;56.04;100190.22;5015550;28;1164;-42
2023/04/27 01:44:33;;;;;;;;;;;;;;;16.44;56.07;100188.13;5017205;28;1906;-40
2023/04/27 01:46:59;;;;;;;;;;;;;;;17.63;53.06;100182.22;5018023;28;1053;-43
2023/04/27 01:49:25;;;;;;;;;;;;;;;16.72;55.12;100185.69;5017033;28;1128;-40
2023/04/27 01:51:50;;;;;;;;;;;;;;;16.41;55.46;100186.75;5010288;28;1285;-42
2023/04/27 01:54:16;;;;;;;;;;;;;;;16.15;55.71;100193.56;5016659;28;1151;-46
2023/04/27 01:56:42;;;;;;;;;;;;;;;17.49;53.67;100187.63;5018552;28;1116;-44
2023/04/27 01:59:07;;;;;;;;;;;;;;;16.90;54.46;100187.72;5025044;28;1145;-46
2023/04/27 02:01:34;;;;;;;;;;;;;;;16.45;55.55;100166.97;5018233;28;1120;-40
2023/04/27 02:03:59;;;;;;;;;;;;;;;16.20;55.68;100179.78;5016427;28;1910;-43
2023/04/27 02:06:26;;;;;;;;;;;;;;;16.50;55.71;100194.38;5004010;28;1158;-44
2023/04/27 02:08:52;;;;;;;;;;;;;;;17.49;53.12;100178.53;5015458;28;1155;-43
2023/04/27 02:11:17;;;;;;;;;;;;;;;16.57;55.27;100190.19;5018195;28;1092;-41
2023/04/27 02:13:43;;;;;;;;;;;;;;;16.31;55.59;100197.00;5015263;28;1613;-43
2023/04/27 02:16:08;;;;;;;;;;;;;;;16.18;55.54;100193.78;5015928;28;1157;-42
2023/04/27 02:18:34;;;;;;;;;;;;;;;16.68;55.43;100196.41;5016741;28;1143;-45
2023/04/27 02:21:00;;;;;;;;;;;;;;;17.55;52.86;100202.94;5016095;28;1267;-45
2023/04/27 02:23:26;;;;;;;;;;;;;;;16.62;54.92;100208.56;5027645;28;1906;-42
2023/04/27 02:25:51;;;;;;;;;;;;;;;16.34;55.56;100204.66;5015743;28;1346;-42
2023/04/27 02:28:17;;;;;;;;;;;;;;;16.19;55.19;100222.06;5020572;28;1245;-41
2023/04/27 02:30:43;;;;;;;;;;;;;;;17.42;53.38;100217.41;5020317;28;1071;-42
2023/04/27 02:33:09;;;;;;;;;;;;;;;17.24;53.49;100230.78;5020052;28;1068;-44
2023/04/27 02:35:34;;;;;;;;;;;;;;;16.57;54.98;100231.38;5023708;28;1101;-42
2023/04/27 02:38:00;;;;;;;;;;;;;;;16.31;55.26;100241.69;5020377;28;1157;-42
2023/04/27 02:40:26;;;;;;;;;;;;;;;16.12;55.42;100236.06;5018971;28;1299;-42
2023/04/27 02:42:51;;;;;;;;;;;;;;;17.37;53.31;100243.00;5020030;28;1979;-40
2023/04/27 02:45:17;;;;;;;;;;;;;;;17.06;53.61;100235.06;5020403;28;1267;-40
2023/04/27 02:47:42;;;;;;;;;;;;;;;16.48;55.16;100224.88;5020047;28;1130;-44
2023/04/27 02:50:08;;;;;;;;;;;;;;;16.29;55.41;100227.47;5020417;28;1128;-41
2023/04/27 02:52:34;;;;;;;;;;;;;;;17.72;52.22;100218.94;5020201;28;1123;-47
2023/04/27 02:55:00;;;;;;;;;;;;;;;16.88;54.16;100222.06;5019818;28;1150;-43
2023/04/27 02:57:26;;;;;;;;;;;;;;;16.45;54.82;100230.09;5018522;28;1177;-42
2023/04/27 02:59:51;;;;;;;;;;;;;;;16.21;54.98;100228.06;5020554;28;1457;-47
2023/04/27 03:02:17;;;;;;;;;;;;;;;16.93;54.19;100247.56;5019743;28;1178;-45
2023/04/27 03:04:42;;;;;;;;;;;;;;;17.18;53.29;100231.13;5018555;28;1914;-45
2023/04/27 03:07:08;;;;;;;;;;;;;;;16.53;54.61;100259.69;5018361;28;1049;-45
2023/04/27 03:09:35;;;;;;;;;;;;;;;16.23;55.30;100253.31;5019276;28;1055;-49
2023/04/27 03:12:01;;;;;;;;;;;;;;;16.10;55.38;100268.44;5030926;28;1070;-46
2023/04/27 03:14:27;;;;;;;;;;;;;;;17.58;52.26;100265.56;5019682;28;1116;-49
2023/04/27 03:16:54;;;;;;;;;;;;;;;16.82;54.22;100265.22;5018182;28;1474;-47
2023/04/27 03:19:20;;;;;;;;;;;;;;;16.40;54.76;100267.44;5017479;28;1143;-48
2023/04/27 03:21:45;;;;;;;;;;;;;;;16.21;55.26;100252.75;5019474;28;1028;-50
2023/04/27 03:24:11;;;;;;;;;;;;;;;17.45;52.64;100258.84;5024107;28;1975;-51
2023/04/27 03:26:36;;;;;;;;;;;;;;;16.98;53.50;100243.94;5019448;28;1035;-47
2023/04/27 03:29:02;;;;;;;;;;;;;;;16.49;54.78;100261.34;5019586;28;1087;-46
2023/04/27 03:31:28;;;;;;;;;;;;;;;16.24;55.03;100253.00;5019328;28;1086;-50
2023/04/27 03:33:53;;;;;;;;;;;;;;;17.14;53.38;100252.88;5019553;28;1163;-46
2023/04/27 03:36:21;;;;;;;;;;;;;;;17.19;52.90;100239.06;5031505;28;1210;-48
2023/04/27 03:38:46;;;;;;;;;;;;;;;16.57;54.09;100247.03;5016645;28;1079;-43
2023/04/27 03:41:12;;;;;;;;;;;;;;;16.24;54.56;100249.44;5019633;28;1127;-45
2023/04/27 03:43:37;;;;;;;;;;;;;;;16.06;55.01;100235.28;5017803;28;1917;-51
2023/04/27 03:46:03;;;;;;;;;;;;;;;16.52;54.70;100250.63;5019042;28;1479;-50
2023/04/27 03:48:28;;;;;;;;;;;;;;;17.60;51.66;100237.81;5031461;28;1012;-45
2023/04/27 03:50:54;;;;;;;;;;;;;;;16.67;53.83;100222.22;5037563;28;1183;-44
2023/04/27 03:53:20;;;;;;;;;;;;;;;16.31;54.48;100238.16;5026344;28;1127;-51
2023/04/27 03:55:46;;;;;;;;;;;;;;;17.35;52.48;100234.25;5007805;28;1279;-48
2023/04/27 03:58:12;;;;;;;;;;;;;;;16.81;53.46;100260.00;5051980;28;1222;-47
2023/04/27 04:00:51;;;;;;;;;;;;;;;16.28;54.60;100242.28;5023049;28;1499;-48
2023/04/27 04:03:16;;;;;;;;;;;;;;;16.11;54.71;100264.59;5034172;28;1910;-48
2023/04/27 04:05:42;;;;;;;;;;;;;;;16.90;53.60;100269.28;5025395;28;1182;-51
2023/04/27 04:08:07;;;;;;;;;;;;;;;17.60;51.28;100263.34;5038586;28;1150;-51
2023/04/27 04:10:33;;;;;;;;;;;;;;;16.71;53.70;100277.38;5038034;28;1117;-51
2023/04/27 04:12:58;;;;;;;;;;;;;;;16.29;54.35;100281.53;5037060;28;1293;-51
2023/04/27 04:15:25;;;;;;;;;;;;;;;16.15;54.31;100268.41;5036692;28;1287;-48
2023/04/27 04:17:53;;;;;;;;;;;;;;;17.24;52.44;100279.44;5036864;28;1103;-47
2023/04/27 04:20:19;;;;;;;;;;;;;;;17.24;52.14;100268.44;5033863;28;1139;-47
2023/04/27 04:22:44;;;;;;;;;;;;;;;16.55;53.69;100279.41;5032192;28;1975;-46
2023/04/27 04:25:11;;;;;;;;;;;;;;;16.26;54.18;100282.91;5023591;28;1194;-47
2023/04/27 04:27:37;;;;;;;;;;;;;;;16.85;53.57;100272.88;5037796;28;1047;-47
2023/04/27 04:30:05;;;;;;;;;;;;;;;17.50;51.33;100281.91;5036552;28;1122;-48
2023/04/27 04:32:32;;;;;;;;;;;;;;;16.68;53.46;100277.97;5026788;28;1131;-45
2023/04/27 04:34:58;;;;;;;;;;;;;;;16.32;53.88;100281.75;5031061;28;1043;-48
2023/04/27 04:37:23;;;;;;;;;;;;;;;16.09;54.28;100291.50;5026837;28;1215;-46
2023/04/27 04:39:50;;;;;;;;;;;;;;;16.06;54.42;100279.16;5023697;28;1331;-46
2023/04/27 04:42:15;;;;;;;;;;;;;;;17.58;51.54;100256.50;5037925;28;1113;-47
2023/04/27 04:44:41;;;;;;;;;;;;;;;16.74;53.30;100288.59;5023241;28;1906;-50
2023/04/27 04:47:08;;;;;;;;;;;;;;;16.30;54.34;100294.13;5035671;28;1283;-50
2023/04/27 04:49:34;;;;;;;;;;;;;;;16.20;54.69;100304.06;5022964;28;1214;-47
2023/04/27 04:52:00;;;;;;;;;;;;;;;17.71;50.80;100315.47;5036086;28;1095;-47
2023/04/27 04:54:26;;;;;;;;;;;;;;;16.87;52.83;100327.50;5023443;28;1086;-48
2023/04/27 04:56:53;;;;;;;;;;;;;;;16.38;53.93;100330.03;5022811;28;1170;-51
2023/04/27 04:59:19;;;;;;;;;;;;;;;16.18;54.24;100335.63;5036416;28;1046;-48
2023/04/27 05:01:44;;;;;;;;;;;;;;;17.64;50.98;100334.25;5024233;28;1154;-48
2023/04/27 05:04:10;;;;;;;;;;;;;;;16.93;52.91;100346.44;5025247;28;1898;-45
2023/04/27 05:06:36;;;;;;;;;;;;;;;17.10;51.91;100339.72;5035997;28;1028;-48
2023/04/27 05:09:01;;;;;;;;;;;;;;;16.37;52.03;100349.53;5024859;28;1067;-43
2023/04/27 05:11:27;;;;;;;;;;;;;;;16.34;51.27;100339.94;5035593;28;1064;-47
2023/04/27 05:13:52;;;;;;;;;;;;;;;16.98;52.09;100342.81;5026098;28;1194;-48
2023/04/27 05:16:18;;;;;;;;;;;;;;;16.48;51.15;100361.25;5035644;28;1039;-51
2023/04/27 05:18:43;;;;;;;;;;;;;;;17.14;52.41;100357.25;5036894;28;1018;-51
2023/04/27 05:21:15;;;;;;;;;;;;;;;16.75;51.69;100350.66;5035391;28;1055;-51
2023/04/27 05:23:40;;;;;;;;;;;;;;;16.36;50.78;100356.91;5028989;28;1893;-48
2023/04/27 05:26:12;;;;;;;;;;;;;;;16.49;51.00;100362.91;5024257;28;1209;-45
2023/04/27 05:28:38;;;;;;;;;;;;;;;16.86;51.77;100369.81;5024517;28;1023;-49
2023/04/27 05:31:03;;;;;;;;;;;;;;;16.62;52.05;100372.41;5022155;28;1230;-51
2023/04/27 05:33:29;;;;;;;;;;;;;;;18.28;49.88;100389.94;5036918;28;1043;-47
2023/04/27 05:35:54;;;;;;;;;;;;;;;16.99;51.32;100388.41;5028499;28;1038;-49
2023/04/27 05:38:20;;;;;;;;;;;;;;;16.57;50.57;100393.31;5016569;28;1119;-49
2023/04/27 05:40:45;;;;;;;;;;;;;;;16.41;49.32;100400.81;5022140;28;1040;-51
2023/04/27 05:43:11;;;;;;;;;;;;;;;17.54;51.11;100412.16;5026975;28;1910;-48
2023/04/27 05:45:40;;;;;;;;;;;;;;;16.69;51.15;100425.94;5036323;28;1136;-48
2023/04/27 05:48:06;;;;;;;;;;;;;;;16.47;49.74;100415.31;5010706;28;1061;-50
2023/04/27 05:50:31;;;;;;;;;;;;;;;16.44;50.33;100426.88;5023116;28;1390;-50
2023/04/27 05:52:57;;;;;;;;;;;;;;;17.09;50.90;100440.53;5026778;28;1060;-51
2023/04/27 05:55:22;;;;;;;;;;;;;;;16.71;51.53;100437.44;5018004;28;1129;-50
2023/04/27 05:57:47;;;;;;;;;;;;;;;18.40;50.14;100452.84;5004947;28;1092;-52
2023/04/27 06:00:14;;;;;;;;;;;;;;;17.32;51.22;100451.94;5029338;28;1048;-51
2023/04/27 06:02:39;;;;;;;;;;;;;;;16.83;50.49;100450.00;5030784;28;1914;-48
2023/04/27 06:05:05;;;;;;;;;;;;;;;16.60;49.34;100450.38;5029861;28;1027;-49
2023/04/27 06:07:31;;;;;;;;;;;;;;;16.52;48.47;100461.97;5016447;28;1108;-51
2023/04/27 06:09:56;;;;;;;;;;;;;;;16.58;48.95;100462.78;5016570;28;1234;-52
2023/04/27 06:12:22;;;;;;;;;;;;;;;17.04;50.47;100459.81;5016171;28;1179;-50
2023/04/27 06:14:47;;;;;;;;;;;;;;;16.50;49.86;100468.84;5016499;28;1242;-51
2023/04/27 06:17:13;;;;;;;;;;;;;;;16.80;50.11;100475.28;5013315;28;1251;-50
2023/04/27 06:19:38;;;;;;;;;;;;;;;16.90;50.40;100472.50;5005788;28;1207;-52
2023/04/27 06:22:04;;;;;;;;;;;;;;;16.54;49.40;100475.41;5017431;28;1231;-55
2023/04/27 06:24:30;;;;;;;;;;;;;;;16.37;48.66;100481.25;5015967;28;1902;-50
2023/04/27 06:26:55;;;;;;;;;;;;;;;16.79;49.65;100487.38;5016237;28;1214;-53
2023/04/27 06:29:21;;;;;;;;;;;;;;;16.64;49.69;100486.34;5016112;28;1163;-50
2023/04/27 06:31:46;;;;;;;;;;;;;;;16.33;49.10;100482.91;5023359;28;1166;-50
2023/04/27 06:34:12;;;;;;;;;;;;;;;17.27;49.78;100493.97;5018628;28;1015;-51
2023/04/27 06:36:37;;;;;;;;;;;;;;;16.65;49.72;100477.00;5017634;28;1155;-50
2023/04/27 06:39:03;;;;;;;;;;;;;;;17.89;49.73;100495.44;5016117;28;1211;-50
2023/04/27 06:41:28;;;;;;;;;;;;;;;17.32;50.67;100503.31;5012820;28;1116;-50
2023/04/27 06:43:54;;;;;;;;;;;;;;;16.83;49.91;100500.28;5015990;28;1987;-50
2023/04/27 06:46:19;;;;;;;;;;;;;;;16.66;49.05;100511.59;5015783;28;1309;-50
2023/04/27 06:48:45;;;;;;;;;;;;;;;16.46;48.20;100506.19;5017882;28;1239;-48
2023/04/27 06:51:11;;;;;;;;;;;;;;;16.40;47.49;100508.94;5016613;28;1210;-49
2023/04/27 06:53:37;;;;;;;;;;;;;;;17.45;49.60;100511.72;5004475;28;1192;-49
2023/04/27 06:56:03;;;;;;;;;;;;;;;16.81;50.11;100524.44;5029185;28;1148;-50
2023/04/27 06:58:30;;;;;;;;;;;;;;;16.49;49.42;100522.06;5022508;28;1234;-49
2023/04/27 07:00:56;;;;;;;;;;;;;;;17.10;49.92;100527.34;5017836;28;1206;-51
2023/04/27 07:03:21;;;;;;;;;;;;;;;17.09;50.00;100520.19;5015492;28;1994;-54
2023/04/27 07:05:47;;;;;;;;;;;;;;;16.71;49.44;100508.81;5003123;28;1127;-47
2023/04/27 07:08:12;;;;;;;;;;;;;;;16.43;48.63;100515.78;5015690;28;1223;-49
2023/04/27 07:10:38;;;;;;;;;;;;;;;16.94;49.92;100512.03;5015361;28;1239;-50
2023/04/27 07:13:03;;;;;;;;;;;;;;;16.51;49.44;100509.72;5017837;28;1207;-50
2023/04/27 07:15:32;;;;;;;;;;;;;;;16.30;48.49;100510.88;5019228;28;1282;-49
2023/04/27 07:17:57;;;;;;;;;;;;;;;16.69;48.44;100491.81;5017538;28;1159;-52
2023/04/27 07:20:22;;;;;;;;;;;;;;;16.72;49.67;100502.22;5015427;28;1052;-50
2023/04/27 07:22:48;;;;;;;;;;;;;;;16.33;48.75;100497.44;5038620;28;1898;-50
2023/04/27 07:25:14;;;;;;;;;;;;;;;17.19;49.24;100508.31;5030699;28;921;-47
2023/04/27 07:27:40;;;;;;;;;;;;;;;16.82;49.72;100508.78;5033259;28;1199;-50
2023/04/27 07:30:08;;;;;;;;;;;;;;;16.48;49.34;100476.50;5038248;28;1016;-48
2023/04/27 07:32:34;;;;;;;;;;;;;;;16.36;48.26;100479.59;5037381;28;1078;-51
2023/04/27 07:34:59;;;;;;;;;;;;;;;16.29;48.08;100466.16;5038702;28;1019;-46
2023/04/27 07:37:25;;;;;;;;;;;;;;;17.15;48.70;100473.47;5038131;28;1015;-52
2023/04/27 07:39:51;;;;;;;;;;;;;;;16.47;49.14;100461.97;5038906;28;1098;-46
2023/04/27 07:42:17;;;;;;;;;;;;;;;16.27;48.40;100457.41;5025198;28;1162;-50
2023/04/27 07:44:43;;;;;;;;;;;;;;;16.18;47.65;100457.13;5038309;28;1905;-51
2023/04/27 07:47:09;;;;;;;;;;;;;;;17.30;48.75;100465.13;5024710;28;1238;-50
2023/04/27 07:49:36;;;;;;;;;;;;;;;16.66;49.55;100456.69;5029815;28;925;-47
2023/04/27 07:52:03;;;;;;;;;;;;;;;16.31;48.72;100446.66;5032235;28;1020;-48
2023/04/27 07:54:28;;;;;;;;;;;;;;;17.28;49.19;100437.94;5031192;28;1182;-50
2023/04/27 07:56:54;;;;;;;;;;;;;;;16.63;49.18;100442.69;5031772;28;1103;-51
2023/04/27 07:59:19;;;;;;;;;;;;;;;16.41;48.53;100447.47;5038375;28;1011;-49
2023/04/27 08:01:45;;;;;;;;;;;;;;;16.21;48.12;100439.28;5037790;28;1129;-49
2023/04/27 08:04:11;;;;;;;;;;;;;;;16.25;47.94;100412.94;5037746;28;1902;-46
2023/04/27 08:06:37;;;;;;;;;;;;;;;17.22;48.57;100441.84;5025295;28;1067;-46
2023/04/27 08:09:03;;;;;;;;;;;;;;;16.55;48.81;100436.69;5038099;28;1015;-48
2023/04/27 08:11:29;;;;;;;;;;;;;;;16.31;48.19;100424.72;5025012;28;1147;-50
2023/04/27 08:13:54;;;;;;;;;;;;;;;17.10;48.83;100431.19;5030159;28;933;-47
2023/04/27 08:16:20;;;;;;;;;;;;;;;16.40;48.92;100426.59;5031498;28;1119;-47
2023/04/27 08:18:45;;;;;;;;;;;;;;;17.60;48.74;100422.81;5025470;28;1131;-48
2023/04/27 08:21:11;;;;;;;;;;;;;;;17.02;49.44;100430.97;5025382;28;1214;-47
2023/04/27 08:23:37;;;;;;;;;;;;;;;16.56;49.04;100429.28;5036908;28;1957;-47
2023/04/27 08:26:03;;;;;;;;;;;;;;;16.41;48.35;100432.91;5035952;28;932;-47
2023/04/27 08:28:28;;;;;;;;;;;;;;;16.37;48.25;100431.84;5020392;28;1008;-45
2023/04/27 08:30:54;;;;;;;;;;;;;;;16.94;49.19;100440.63;5015860;28;1094;-49
2023/04/27 08:33:19;;;;;;;;;;;;;;;16.55;48.53;100422.97;5035723;28;1035;-49
2023/04/27 08:35:45;;;;;;;;;;;;;;;16.30;48.00;100432.13;5026136;28;1139;-48
2023/04/27 08:38:10;;;;;;;;;;;;;;;17.30;48.39;100432.13;5021892;28;1135;-46
2023/04/27 08:40:40;;;;;;;;;;;;;;;16.95;48.92;100439.53;5000940;28;1170;-51
2023/04/27 08:43:06;;;;;;;;;;;;;;;16.71;48.45;100434.69;5024594;28;1906;-49
2023/04/27 08:45:31;;;;;;;;;;;;;;;16.50;47.83;100438.66;5022679;28;1159;-47
2023/04/27 08:47:57;;;;;;;;;;;;;;;17.20;48.54;100435.78;5037377;28;1046;-50
2023/04/27 08:50:23;;;;;;;;;;;;;;;16.57;48.79;100461.94;5023310;28;900;-46
2023/04/27 08:52:49;;;;;;;;;;;;;;;16.53;48.47;100449.06;5037345;28;1051;-49
2023/04/27 08:55:15;;;;;;;;;;;;;;;17.17;48.54;100457.53;5037189;28;1040;-47
2023/04/27 08:57:40;;;;;;;;;;;;;;;16.56;48.88;100473.19;5030287;28;1209;-47
2023/04/27 09:00:12;;;;;;;;;;;;;;;17.97;47.75;100477.53;5017196;28;1032;-48
2023/04/27 09:02:45;;;;;;;;;;;;;;;17.03;49.16;100488.38;5024649;28;993;-50
2023/04/27 09:05:17;;;;;;;;;;;;;;;16.73;48.31;100497.53;5023957;28;1060;-50
2023/04/27 09:07:43;;;;;;;;;;;;;;;16.87;48.76;100506.00;5028051;28;1143;-48
2023/04/27 09:10:08;;;;;;;;;;;;;;;17.07;48.97;100494.94;5005185;28;1091;-47
2023/04/27 09:12:34;;;;;;;;;;;;;;;16.69;48.56;100516.53;5029244;28;1110;-50
2023/04/27 09:15:02;;;;;;;;;;;;;;;18.06;47.88;100498.63;5030935;28;917;-52
2023/04/27 09:17:29;;;;;;;;;;;;;;;17.02;49.34;100518.88;5024650;28;1178;-51
2023/04/27 09:20:12;;;;;;;;;;;;;;;16.76;48.33;100518.97;5036403;28;1047;-52
2023/04/27 09:22:56;;;;;;;;;;;;;;;16.64;47.92;100529.44;5032688;28;1111;-52
2023/04/27 09:25:25;;;;;;;;;;;;;;;17.40;48.60;100532.94;5034357;28;1110;-52
2023/04/27 09:27:51;;;;;;;;;;;;;;;16.84;48.47;100534.03;5022727;28;1127;-51
2023/04/27 09:30:16;;;;;;;;;;;;;;;16.68;47.73;100525.84;5010214;28;1100;-49
2023/04/27 09:32:52;;;;;;;;;;;;;;;16.62;48.03;100527.00;5018217;28;1269;-52
2023/04/27 09:35:21;;;;;;;;;;;;;;;17.03;48.51;100535.06;5022667;28;1178;-52
2023/04/27 09:37:47;;;;;;;;;;;;;;;16.63;48.30;100539.59;5027297;28;1056;-52
2023/04/27 09:40:13;;;;;;;;;;;;;;;16.48;47.72;100539.63;5022478;28;1227;-52
2023/04/27 09:42:38;;;;;;;;;;;;;;;17.21;48.33;100530.84;5014604;28;1059;-52
2023/04/27 09:45:04;;;;;;;;;;;;;;;16.89;48.94;100534.06;5014223;28;1973;-53
2023/04/27 09:47:30;;;;;;;;;;;;;;;16.53;48.19;100539.63;5019024;28;1225;-51
2023/04/27 09:49:56;;;;;;;;;;;;;;;17.42;48.20;100538.97;5032684;28;971;-50
2023/04/27 09:52:22;;;;;;;;;;;;;;;16.79;48.89;100547.78;5034662;28;1035;-52
2023/04/27 09:54:47;;;;;;;;;;;;;;;16.55;48.24;100548.41;5026307;28;1025;-52
2023/04/27 09:57:18;;;;;;;;;;;;;;;16.47;47.46;100551.75;5032041;28;1006;-52
2023/04/27 09:59:43;;;;;;;;;;;;;;;17.51;47.86;100540.00;5030602;28;897;-52
2023/04/27 10:02:09;;;;;;;;;;;;;;;16.77;48.42;100546.16;5031245;28;999;-52
2023/04/27 10:04:41;;;;;;;;;;;;;;;16.50;48.01;100538.25;5016350;28;1978;-52
2023/04/27 10:07:13;;;;;;;;;;;;;;;17.21;48.36;100538.28;5010729;28;1012;-53
2023/04/27 10:09:45;;;;;;;;;;;;;;;16.65;48.53;100531.06;5016140;28;1031;-46
2023/04/27 10:12:20;;;;;;;;;;;;;;;16.52;47.71;100544.31;5034999;28;1007;-55
2023/04/27 10:14:50;;;;;;;;;;;;;;;17.33;48.06;100536.00;5035507;28;1019;-56
2023/04/27 10:17:16;;;;;;;;;;;;;;;16.69;48.36;100546.72;5035717;28;1054;-53
2023/04/27 10:19:51;;;;;;;;;;;;;;;17.04;48.27;100552.38;5022701;28;1182;-51
2023/04/27 10:22:16;;;;;;;;;;;;;;;17.11;48.82;100547.41;5025212;28;1047;-48
2023/04/27 10:24:43;;;;;;;;;;;;;;;16.66;48.60;100555.53;5028958;28;1985;-51
2023/04/27 10:27:10;;;;;;;;;;;;;;;16.60;47.37;100551.13;5027701;28;1373;-52
2023/04/27 10:29:40;;;;;;;;;;;;;;;16.33;47.34;100540.50;5022820;28;1067;-51
2023/04/27 10:32:10;;;;;;;;;;;;;;;16.36;47.06;100550.94;5035527;28;1031;-50
2023/04/27 10:34:36;;;;;;;;;;;;;;;17.07;48.06;100551.81;5027414;28;1210;-48
2023/04/27 10:37:06;;;;;;;;;;;;;;;16.58;47.80;100542.38;5030656;28;1110;-50
2023/04/27 10:39:37;;;;;;;;;;;;;;;16.38;47.51;100555.03;5026602;28;988;-51
2023/04/27 10:42:02;;;;;;;;;;;;;;;17.35;47.59;100539.28;5031856;28;1210;-52
2023/04/27 10:44:28;;;;;;;;;;;;;;;16.58;48.25;100545.94;5035791;28;1922;-49
2023/04/27 10:46:54;;;;;;;;;;;;;;;16.46;47.41;100539.09;5023312;28;1143;-47
2023/04/27 10:49:20;;;;;;;;;;;;;;;16.89;47.75;100539.53;5039451;28;1067;-48
2023/04/27 10:51:46;;;;;;;;;;;;;;;16.81;48.11;100529.09;5026129;28;918;-50
2023/04/27 10:54:12;;;;;;;;;;;;;;;16.43;48.03;100544.03;5020587;28;1201;-50
2023/04/27 10:56:37;;;;;;;;;;;;;;;16.25;47.69;100533.66;5031658;28;1051;-47
2023/04/27 10:59:03;;;;;;;;;;;;;;;16.77;47.68;100548.06;5039442;28;1063;-46
2023/04/27 11:01:29;;;;;;;;;;;;;;;17.23;47.87;100536.06;5027888;28;1124;-47
2023/04/27 11:03:56;;;;;;;;;;;;;;;16.60;48.16;100524.50;5034866;28;1975;-51
2023/04/27 11:06:21;;;;;;;;;;;;;;;16.43;47.87;100530.31;5019254;28;1211;-51
2023/04/27 11:08:46;;;;;;;;;;;;;;;17.49;47.53;100528.47;5032398;28;1433;-48
2023/04/27 11:11:16;;;;;;;;;;;;;;;16.59;48.18;100513.81;5019296;28;1069;-47
2023/04/27 11:13:42;;;;;;;;;;;;;;;16.48;47.66;100526.75;5022143;28;999;-48
2023/04/27 11:16:08;;;;;;;;;;;;;;;16.86;48.17;100531.84;5032415;28;1034;-49
2023/04/27 11:18:35;;;;;;;;;;;;;;;16.65;48.43;100520.94;5035370;28;1111;-49
2023/04/27 11:21:13;;;;;;;;;;;;;;;16.71;48.37;100530.78;5025225;28;1452;-48
2023/04/27 11:23:39;;;;;;;;;;;;;;;17.61;47.63;100530.84;5025237;28;1971;-51
2023/04/27 11:26:11;;;;;;;;;;;;;;;16.85;48.34;100520.00;5038363;28;1051;-49
2023/04/27 11:28:37;;;;;;;;;;;;;;;16.60;47.72;100526.44;5024036;28;1064;-52
2023/04/27 11:31:05;;;;;;;;;;;;;;;16.42;47.31;100525.94;5034023;28;1102;-50
2023/04/27 11:33:31;;;;;;;;;;;;;;;17.50;47.73;100521.88;5030451;28;1110;-50
2023/04/27 11:35:57;;;;;;;;;;;;;;;16.65;48.41;100526.41;5033612;28;1086;-51
2023/04/27 11:38:22;;;;;;;;;;;;;;;16.70;48.18;100520.09;5030304;28;1111;-48
2023/04/27 11:41:06;;;;;;;;;;;;;;;17.22;48.31;100517.94;5025318;28;1170;-51
2023/04/27 11:43:32;;;;;;;;;;;;;;;16.67;47.97;100529.69;5024955;28;1977;-51
2023/04/27 11:45:57;;;;;;;;;;;;;;;16.54;47.52;100530.31;5038746;28;1240;-49
2023/04/27 11:48:23;;;;;;;;;;;;;;;17.20;47.97;100537.44;5025317;28;1119;-47
2023/04/27 11:50:49;;;;;;;;;;;;;;;16.66;48.23;100544.53;5024427;28;1309;-48
2023/04/27 11:53:15;;;;;;;;;;;;;;;17.95;47.21;100549.34;5028404;28;1099;-50
2023/04/27 11:55:41;;;;;;;;;;;;;;;17.22;48.52;100539.91;5031731;28;1039;-50
2023/04/27 11:58:14;;;;;;;;;;;;;;;16.82;48.34;100541.75;5007232;28;1064;-50
2023/04/27 12:00:39;;;;;;;;;;;;;;;16.65;47.64;100550.28;5029894;28;1035;-45
2023/04/27 12:03:05;;;;;;;;;;;;;;;16.53;46.93;100556.09;5029561;28;1910;-49
2023/04/27 12:05:30;;;;;;;;;;;;;;;16.44;46.76;100544.88;5033668;28;972;-50
2023/04/27 12:07:57;;;;;;;;;;;;;;;17.09;48.00;100544.09;5017694;28;1124;-46
2023/04/27 12:10:22;;;;;;;;;;;;;;;16.62;47.92;100539.88;5023313;28;1036;-49
2023/04/27 12:12:48;;;;;;;;;;;;;;;17.08;48.15;100537.81;5037150;28;1247;-48
2023/04/27 12:15:13;;;;;;;;;;;;;;;16.92;48.11;100544.47;5032391;28;1098;-46
2023/04/27 12:17:39;;;;;;;;;;;;;;;16.56;47.95;100544.56;5029727;28;1143;-47
2023/04/27 12:20:05;;;;;;;;;;;;;;;16.41;47.08;100537.19;5037675;28;1046;-53
2023/04/27 12:22:30;;;;;;;;;;;;;;;17.04;47.88;100544.97;5036981;28;1134;-45
2023/04/27 12:24:56;;;;;;;;;;;;;;;16.48;48.22;100547.88;5032359;28;1887;-49
2023/04/27 12:27:21;;;;;;;;;;;;;;;16.40;47.38;100552.03;5029289;28;1119;-46
2023/04/27 12:29:47;;;;;;;;;;;;;;;17.33;47.26;100554.41;5019037;28;1151;-48
2023/04/27 12:32:12;;;;;;;;;;;;;;;16.52;48.25;100547.06;5030813;28;1016;-50
2023/04/27 12:34:38;;;;;;;;;;;;;;;16.43;47.62;100549.53;5024387;28;1104;-47
2023/04/27 12:37:04;;;;;;;;;;;;;;;16.37;46.91;100553.41;5023923;28;1143;-48
2023/04/27 12:39:30;;;;;;;;;;;;;;;16.32;46.93;100549.84;5019580;28;1162;-52
2023/04/27 12:41:57;;;;;;;;;;;;;;;17.09;47.58;100552.34;5016993;28;1175;-51
2023/04/27 12:44:22;;;;;;;;;;;;;;;16.46;47.98;100556.38;5017591;28;1975;-47